Airfield :
LOGIN :

Register | Disclaimer

   EN    FR    IT 

 










Legend :    VFR   Marginal VFR   IFR   Intensive IFR   Very Intensive IFR
Visi :
Ceiling :
>= 8 km
>= 3000ft
5 to 8 km
1000 to 3000 ft
1500m to 5 km
500 to 1000 ft
800 to 1500m
200 to 500 ft
< 800m
< 200 ft
Symbols :   Thunderstorms  Fog  Heavy snow  Heavy precipitations  Wind > 20 kt
SIGMETs :     Misc.  Thunderstorms  Icing  Turbulence  Mountain Waves  Volcanic Ashes






- Airport Elevation : 37 ft
- IATA code : HLY


EGOV - RAF Valley

CURRENT METAR :
  • 271421Z 29018KT 9999 FEW025 07/M00 Q1007 NOSIG RMK BLU BLU

EXPIRED METARs :
  • 271350Z 30018KT 9999 FEW025 07/01 Q1007 NOSIG RMK BLU BLU
  • 271318Z 29017KT 9999 FEW024 07/01 Q1006 NOSIG RMK BLU BLU
  • 271250Z 30017KT 9999 FEW022 07/01 Q1006 NOSIG RMK BLU BLU
  • 271220Z 29017KT 9999 FEW021 07/01 Q1005 NOSIG RMK BLU BLU
  • 271150Z 30019KT 9999 FEW023 06/00 Q1005 NOSIG RMK BLU BLU

TAF TAF EGOV
Valid from the 27 at 15:00 until the 27 at 21:00 UTC


271329Z 2715/2721 29015G25KT 9999 FEW025
BECMG 2715/2718 27010KT



MET'MAP, your aeronautical weather chart ! - Copyright ORBIFLY December 2007 - Disclaimer

ORBIFLY MET'MAP TEAM :

Programming & Development : Alexandra Zaïnal
Concept & original design : Baudouin d'Aumeries
Assistance for programming : Marc-Olivier Méhu
Technical & hardware support : Manuel Goepfert

Contact : metmap@orbifly.com




SOURCES & CREDITS :

   NOAA